Air Navigation Services of Czech Republic
Airport: LKPD Updated:  25.07.2017 12:08:11  UTC
 METAR LKPD 25.07. 12:00 ...
METAR LKPD 251200Z 26014KT 9999 SCT030 OVC050 19/10 Q1004 NOSIG =
 TAF LKPD 25.07. 11:00 ...
TAF LKPD 251100Z 2512/2612 27010KT 9999 SCT030 BKN045      TEMPO 2512/2516 27012G22KT      TEMPO 2603/2612 7000 SHRA SCT015TCU BKN020=